Time;durP1;ratioP1;P1;durP2;ratioP2;P2;SDS_P1;SDS_P2;PMS_P1;PMS_P2;Temp;Humidity;BMP_temperature;BMP_pressure;BME280_temperature;BME280_humidity;BME280_pressure;Samples;Min_cycle;Max_cycle;Signal;HPM_P1;HPM_P2
2022/12/06 00:01:21;;;;;;;6.65;3.50;;;5.80;99.90;;;;;;5115581;28;20039;-65
2022/12/06 00:03:51;;;;;;;4.05;2.70;;;5.80;99.90;;;;;;5116010;28;20088;-65
2022/12/06 00:06:20;;;;;;;6.95;3.40;;;5.70;99.90;;;;;;5116361;28;20039;-66
2022/12/06 00:08:46;;;;;;;9.15;3.28;;;5.70;99.90;;;;;;5115806;28;20451;-65
2022/12/06 00:11:31;;;;;;;9.40;3.78;;;5.80;99.90;;;;;;5115390;28;20439;-66
2022/12/06 00:13:59;;;;;;;6.72;3.45;;;5.60;99.90;;;;;;5115298;28;20473;-66
2022/12/06 00:16:25;;;;;;;9.60;3.65;;;5.70;99.90;;;;;;5115358;28;20082;-66
2022/12/06 00:18:52;;;;;;;6.68;3.10;;;5.60;99.90;;;;;;5115467;28;20039;-65
2022/12/06 00:21:23;;;;;;;6.30;3.42;;;5.70;99.90;;;;;;5115493;28;20078;-65
2022/12/06 00:23:54;;;;;;;7.90;3.55;;;5.60;99.90;;;;;;5115463;28;20043;-65
2022/12/06 00:26:21;;;;;;;4.78;2.88;;;5.60;99.90;;;;;;5115122;28;20093;-65
2022/12/06 00:28:47;;;;;;;11.10;3.55;;;5.70;99.90;;;;;;5115296;28;20430;-66
2022/12/06 00:31:16;;;;;;;6.18;3.25;;;5.70;99.90;;;;;;5115301;28;20095;-66
2022/12/06 00:33:42;;;;;;;10.05;3.90;;;5.60;99.90;;;;;;5114825;28;20039;-66
2022/12/06 00:36:16;;;;;;;7.25;3.35;;;5.70;99.90;;;;;;5115696;28;20079;-66
2022/12/06 00:38:43;;;;;;;8.13;4.07;;;5.50;99.90;;;;;;5115132;28;20035;-66
2022/12/06 00:41:12;;;;;;;8.05;3.75;;;5.50;99.90;;;;;;5115134;28;20039;-66
2022/12/06 00:43:38;;;;;;;9.00;2.88;;;5.50;99.90;;;;;;5096635;28;20043;-66
2022/12/06 00:46:06;;;;;;;12.32;3.60;;;5.50;99.90;;;;;;5114734;28;20062;-66
2022/12/06 00:48:33;;;;;;;5.30;2.80;;;5.60;99.90;;;;;;5114921;28;20075;-66
2022/12/06 00:50:58;;;;;;;7.97;2.92;;;5.60;99.90;;;;;;5115398;28;20073;-66
2022/12/06 00:53:24;;;;;;;6.22;3.05;;;5.60;99.90;;;;;;5114854;28;20039;-66
2022/12/06 00:55:50;;;;;;;7.75;2.70;;;5.70;99.90;;;;;;5114556;28;20478;-66
2022/12/06 00:58:16;;;;;;;8.43;2.50;;;5.70;99.90;;;;;;5114500;28;20047;-66
2022/12/06 01:00:42;;;;;;;8.60;2.50;;;5.70;99.90;;;;;;5114810;28;20039;-66
2022/12/06 01:03:08;;;;;;;5.35;2.25;;;5.60;99.90;;;;;;5114947;28;20438;-66
2022/12/06 01:05:43;;;;;;;8.20;2.15;;;5.70;99.90;;;;;;5114779;28;20040;-66
2022/12/06 01:08:09;;;;;;;5.60;2.10;;;5.70;99.90;;;;;;5115275;28;20408;-66
2022/12/06 01:10:37;;;;;;;5.70;1.95;;;5.70;99.90;;;;;;5114591;28;20039;-66
2022/12/06 01:13:03;;;;;;;6.85;2.47;;;5.60;99.90;;;;;;5114227;28;20488;-66
2022/12/06 01:15:29;;;;;;;5.88;2.22;;;5.60;99.90;;;;;;5114177;28;20048;-66
2022/12/06 01:17:55;;;;;;;3.63;1.90;;;5.70;99.90;;;;;;5096013;28;20046;-66
2022/12/06 01:20:20;;;;;;;4.00;1.23;;;5.60;99.90;;;;;;5114363;28;20401;-66
2022/12/06 01:22:46;;;;;;;5.47;1.70;;;5.60;99.90;;;;;;5114508;28;20063;-66
2022/12/06 01:25:12;;;;;;;5.22;1.23;;;5.60;99.90;;;;;;5114050;28;20044;-66
2022/12/06 01:27:37;;;;;;;4.32;1.25;;;5.50;99.90;;;;;;5114331;28;20035;-67
2022/12/06 01:30:05;;;;;;;2.00;0.93;;;5.50;99.90;;;;;;5114072;28;20466;-66
2022/12/06 01:32:30;;;;;;;3.38;1.10;;;5.50;99.90;;;;;;5114358;28;20043;-66
2022/12/06 01:34:56;;;;;;;4.28;1.02;;;5.40;99.90;;;;;;5114403;28;20065;-66
2022/12/06 01:37:22;;;;;;;3.80;1.00;;;5.40;99.90;;;;;;5114000;28;20355;-66
2022/12/06 01:39:47;;;;;;;4.43;0.98;;;5.50;99.90;;;;;;5114339;28;20035;-66
2022/12/06 01:42:14;;;;;;;1.55;0.90;;;5.50;99.90;;;;;;5114279;28;20046;-67
2022/12/06 01:44:49;;;;;;;2.05;0.80;;;5.40;99.90;;;;;;5114310;28;20102;-67
2022/12/06 01:47:28;;;;;;;2.30;0.77;;;5.30;99.90;;;;;;5117035;28;20096;-67
2022/12/06 01:50:02;;;;;;;3.25;0.80;;;5.40;99.90;;;;;;5118339;28;20043;-67
2022/12/06 01:52:38;;;;;;;1.88;0.77;;;5.40;99.90;;;;;;5118411;28;20054;-67
2022/12/06 01:55:06;;;;;;;1.65;1.00;;;5.40;99.90;;;;;;5117725;28;20028;-66
2022/12/06 01:57:32;;;;;;;2.90;1.02;;;5.30;99.90;;;;;;5118385;28;20092;-67
2022/12/06 01:59:58;;;;;;;1.38;0.80;;;5.40;99.90;;;;;;5099786;28;20040;-67
2022/12/06 02:02:24;;;;;;;2.35;1.10;;;5.40;99.90;;;;;;5118206;28;20039;-67
2022/12/06 02:04:51;;;;;;;3.47;1.17;;;5.30;99.90;;;;;;5118199;28;20096;-67
2022/12/06 02:07:18;;;;;;;2.63;1.02;;;5.30;99.90;;;;;;5118484;28;20047;-67
2022/12/06 02:09:44;;;;;;;3.53;1.40;;;5.40;99.90;;;;;;5118160;28;20043;-67
2022/12/06 02:12:12;;;;;;;4.43;1.50;;;5.30;99.90;;;;;;5116749;28;20042;-67
2022/12/06 02:14:39;;;;;;;4.32;1.45;;;5.30;99.90;;;;;;5097989;28;20114;-67
2022/12/06 02:17:16;;;;;;;1.95;1.05;;;5.40;99.90;;;;;;5117701;28;20118;-67
2022/12/06 02:20:31;;;;;;;4.68;1.05;;;5.30;99.90;;;;;;5117887;28;20035;-67
2022/12/06 02:23:09;;;;;;;3.70;1.20;;;5.40;99.90;;;;;;5015132;28;20053;-67
2022/12/06 02:26:11;;;;;;;2.72;1.20;;;5.40;99.90;;;;;;5015115;28;20133;-67
2022/12/06 02:29:09;;;;;;;2.63;1.30;;;5.30;99.90;;;;;;5015031;28;20038;-67
2022/12/06 02:31:43;;;;;;;3.38;1.10;;;5.40;99.90;;;;;;5014919;28;20366;-67
2022/12/06 02:34:21;;;;;;;2.47;1.20;;;5.20;99.90;;;;;;5014865;28;20037;-67
2022/12/06 02:37:22;;;;;;;2.40;1.58;;;5.20;99.90;;;;;;5014888;28;20512;-67
2022/12/06 02:40:13;;;;;;;3.20;1.60;;;5.20;99.90;;;;;;4995503;28;20481;-67
2022/12/06 02:43:05;;;;;;;6.07;1.73;;;5.20;99.90;;;;;;4995934;28;20082;-67
2022/12/06 02:45:36;;;;;;;4.20;1.50;;;5.20;99.90;;;;;;4994608;28;20529;-67
2022/12/06 02:48:05;;;;;;;3.58;1.58;;;5.10;99.90;;;;;;4994994;28;20057;-67
2022/12/06 02:50:38;;;;;;;4.07;1.40;;;5.20;99.90;;;;;;4995223;28;20128;-67
2022/12/06 02:53:07;;;;;;;4.85;1.50;;;5.20;99.90;;;;;;4994878;28;20085;-67
2022/12/06 02:55:34;;;;;;;2.83;1.60;;;5.10;99.90;;;;;;4994833;28;20078;-67
2022/12/06 02:58:00;;;;;;;4.45;1.60;;;5.20;99.90;;;;;;5018086;28;20056;-67
2022/12/06 03:00:28;;;;;;;2.42;1.80;;;5.20;99.90;;;;;;5054216;28;20037;-67
2022/12/06 03:03:06;;;;;;;5.93;1.55;;;5.10;99.90;;;;;;5053976;28;20434;-67
2022/12/06 03:05:38;;;;;;;8.57;1.58;;;5.10;99.90;;;;;;5054004;28;20501;-67
2022/12/06 03:08:13;;;;;;;5.63;1.60;;;5.20;99.90;;;;;;5053872;28;20107;-67
2022/12/06 03:10:52;;;;;;;4.32;1.52;;;5.10;99.90;;;;;;5053877;28;20530;-67
2022/12/06 03:13:38;;;;;;;4.43;1.67;;;5.00;99.90;;;;;;5054134;28;20052;-67
2022/12/06 03:16:16;;;;;;;4.45;1.67;;;5.00;99.90;;;;;;5103468;28;20040;-67
2022/12/06 03:18:57;;;;;;;9.55;2.15;;;5.10;99.90;;;;;;5116711;28;20031;-67
2022/12/06 03:21:28;;;;;;;5.93;1.83;;;5.10;99.90;;;;;;5116705;28;20035;-67
2022/12/06 03:23:55;;;;;;;4.35;1.33;;;5.00;99.90;;;;;;5116423;28;20039;-67
2022/12/06 03:26:27;;;;;;;5.35;1.60;;;5.10;99.90;;;;;;5116569;28;20036;-67
2022/12/06 03:28:56;;;;;;;3.00;1.48;;;5.10;99.90;;;;;;5116579;28;20040;-67
2022/12/06 03:31:24;;;;;;;4.30;1.63;;;5.20;99.90;;;;;;5116483;28;20114;-67
2022/12/06 03:33:56;;;;;;;4.88;1.55;;;5.10;99.90;;;;;;5116079;28;20506;-67
2022/12/06 03:36:23;;;;;;;3.05;1.15;;;5.00;99.90;;;;;;5116280;28;20039;-67
2022/12/06 03:39:02;;;;;;;4.70;1.38;;;5.10;99.90;;;;;;5116410;28;20035;-67
2022/12/06 03:41:32;;;;;;;2.35;1.30;;;5.00;99.90;;;;;;5116335;28;20050;-67
2022/12/06 03:43:58;;;;;;;3.13;1.40;;;5.00;99.90;;;;;;5116471;28;20089;-67
2022/12/06 03:46:33;;;;;;;6.03;1.33;;;5.00;99.90;;;;;;5115954;28;20067;-67
2022/12/06 03:49:03;;;;;;;3.25;1.40;;;4.90;99.90;;;;;;5116247;28;20112;-67
2022/12/06 03:51:32;;;;;;;6.28;1.15;;;4.90;99.90;;;;;;5115801;28;20044;-67
2022/12/06 03:54:00;;;;;;;2.58;1.30;;;4.80;99.90;;;;;;5097591;28;20047;-67
2022/12/06 03:56:27;;;;;;;2.13;1.15;;;4.80;99.90;;;;;;5115782;28;20500;-66
2022/12/06 03:58:52;;;;;;;2.33;1.50;;;4.90;99.90;;;;;;5115935;28;20035;-66
2022/12/06 04:01:18;;;;;;;3.88;1.30;;;4.90;99.90;;;;;;5115995;28;20062;-66
2022/12/06 04:03:44;;;;;;;3.75;1.17;;;4.80;99.90;;;;;;5115518;28;20092;-66
2022/12/06 04:06:10;;;;;;;3.30;1.08;;;4.90;99.90;;;;;;5116147;28;20089;-66
2022/12/06 04:08:38;;;;;;;1.23;0.90;;;4.90;99.90;;;;;;5115032;28;20042;-66
2022/12/06 04:11:04;;;;;;;2.42;1.15;;;4.70;99.90;;;;;;5115742;28;20039;-66
2022/12/06 04:13:30;;;;;;;3.05;1.00;;;4.80;99.90;;;;;;5115451;28;20092;-66
2022/12/06 04:15:58;;;;;;;3.22;0.90;;;4.90;99.90;;;;;;5115354;28;20462;-66
2022/12/06 04:18:25;;;;;;;1.70;0.98;;;4.80;99.90;;;;;;5115578;28;20031;-66
2022/12/06 04:23:37;;;;;;;1.70;1.00;;;4.80;99.90;;;;;;5115530;28;20363;-66
2022/12/06 04:26:05;;;;;;;1.02;0.88;;;4.80;99.90;;;;;;5115470;28;20055;-66
2022/12/06 04:39:27;;;;;;;1.63;0.63;;;4.50;99.90;;;;;;5115241;28;20044;-66
2022/12/06 04:44:38;;;;;;;3.78;0.80;;;4.40;99.90;;;;;;5115149;28;20035;-66
2022/12/06 04:47:04;;;;;;;1.10;0.80;;;4.30;99.90;;;;;;5114693;28;20056;-66
2022/12/06 04:49:30;;;;;;;3.05;0.85;;;4.10;99.90;;;;;;5115355;28;20039;-66
2022/12/06 04:51:56;;;;;;;1.20;0.77;;;4.20;99.90;;;;;;5114894;28;20058;-66
2022/12/06 04:54:22;;;;;;;1.77;0.80;;;4.10;99.90;;;;;;5114932;28;20038;-67
2022/12/06 04:56:47;;;;;;;2.17;0.98;;;4.10;99.90;;;;;;5114568;28;20470;-66
2022/12/06 04:59:13;;;;;;;1.88;0.85;;;3.90;99.90;;;;;;5114594;28;20039;-66
2022/12/06 05:01:39;;;;;;;1.88;0.95;;;3.80;99.90;;;;;;5114804;28;20040;-66
2022/12/06 05:04:04;;;;;;;2.33;1.10;;;3.90;99.90;;;;;;5114820;28;20039;-66
2022/12/06 05:06:30;;;;;;;1.27;0.95;;;3.80;99.90;;;;;;5114764;28;20092;-66
2022/12/06 05:08:56;;;;;;;1.58;0.93;;;3.90;99.90;;;;;;5114702;28;20119;-66
2022/12/06 05:11:21;;;;;;;3.53;1.17;;;3.80;99.90;;;;;;5114656;28;20035;-67
2022/12/06 05:13:47;;;;;;;5.10;1.23;;;3.90;99.90;;;;;;5095842;28;20043;-67
2022/12/06 05:16:13;;;;;;;5.65;2.08;;;3.80;99.90;;;;;;5114329;28;20080;-67
2022/12/06 05:18:38;;;;;;;3.05;1.67;;;3.70;99.90;;;;;;5114528;28;20110;-67
2022/12/06 05:21:13;;;;;;;5.95;1.90;;;3.90;99.90;;;;;;5114522;28;20389;-67
2022/12/06 05:23:39;;;;;;;5.85;2.08;;;3.80;99.90;;;;;;5114506;28;20050;-67
2022/12/06 05:26:26;;;;;;;5.80;2.55;;;4.10;99.90;;;;;;5114510;28;20043;-67
2022/12/06 05:28:52;;;;;;;5.03;3.40;;;4.00;99.90;;;;;;5114136;28;20043;-67
2022/12/06 05:31:18;;;;;;;10.23;3.92;;;4.00;99.90;;;;;;5114386;28;20054;-67
2022/12/06 05:33:45;;;;;;;6.97;4.03;;;4.20;99.90;;;;;;5114303;28;20040;-67
2022/12/06 05:36:20;;;;;;;6.78;3.90;;;4.00;99.90;;;;;;5114325;28;20491;-67
2022/12/06 05:38:47;;;;;;;12.07;4.35;;;4.20;99.90;;;;;;5114012;28;20474;-67
2022/12/06 05:41:13;;;;;;;9.20;4.22;;;4.40;99.90;;;;;;5114268;28;20050;-67
2022/12/06 05:43:39;;;;;;;4.28;3.70;;;4.30;99.90;;;;;;5114032;28;20521;-67
2022/12/06 05:46:05;;;;;;;6.70;3.45;;;4.30;99.90;;;;;;5113986;28;20131;-67
2022/12/06 05:48:30;;;;;;;4.35;2.47;;;4.40;99.90;;;;;;5114268;28;20039;-67
2022/12/06 05:50:56;;;;;;;6.63;2.40;;;4.20;99.90;;;;;;5114280;28;20484;-67
2022/12/06 05:53:22;;;;;;;5.97;2.63;;;4.20;99.90;;;;;;5114621;28;20047;-67
2022/12/06 05:55:48;;;;;;;4.63;2.40;;;4.10;99.90;;;;;;5114179;28;20050;-67
2022/12/06 05:58:14;;;;;;;4.93;2.53;;;4.20;99.90;;;;;;5113857;28;20028;-67
2022/12/06 06:00:40;;;;;;;5.70;2.70;;;4.20;99.90;;;;;;5113796;28;20531;-67
2022/12/06 06:03:06;;;;;;;7.13;2.33;;;4.00;99.90;;;;;;5114415;28;20047;-67
2022/12/06 06:05:32;;;;;;;3.50;2.75;;;4.10;99.90;;;;;;5114353;28;20032;-67
2022/12/06 06:07:57;;;;;;;5.32;2.50;;;4.20;99.90;;;;;;5114076;28;20032;-67
2022/12/06 06:10:23;;;;;;;5.30;2.10;;;4.00;99.90;;;;;;5095850;28;20051;-67
2022/12/06 06:12:50;;;;;;;7.20;2.60;;;4.00;99.90;;;;;;5113868;28;20050;-67
2022/12/06 06:15:16;;;;;;;6.72;3.17;;;4.10;99.90;;;;;;5092994;28;20040;-67
2022/12/06 06:17:42;;;;;;;9.77;2.70;;;4.10;99.90;;;;;;5112487;28;20039;-67
2022/12/06 06:20:12;;;;;;;6.70;2.85;;;4.00;99.90;;;;;;5114189;28;20123;-67
2022/12/06 06:22:39;;;;;;;7.80;2.58;;;4.10;99.90;;;;;;5113975;28;20139;-67
2022/12/06 06:25:06;;;;;;;6.28;2.67;;;4.10;99.90;;;;;;5095409;28;20039;-67
2022/12/06 06:27:35;;;;;;;7.60;2.58;;;4.20;99.90;;;;;;5113905;28;20047;-67
2022/12/06 06:30:03;;;;;;;3.75;2.38;;;4.20;99.90;;;;;;5113778;28;20071;-67
2022/12/06 06:32:28;;;;;;;5.10;2.88;;;4.00;99.90;;;;;;5114979;28;20500;-67
2022/12/06 06:34:54;;;;;;;6.20;2.78;;;4.00;99.90;;;;;;5117739;28;20114;-67
2022/12/06 06:37:19;;;;;;;5.50;2.67;;;4.00;99.90;;;;;;5118383;28;20083;-67
2022/12/06 06:39:45;;;;;;;7.65;2.33;;;4.00;99.90;;;;;;5117570;28;20115;-67
2022/12/06 06:42:11;;;;;;;5.38;2.33;;;3.90;99.90;;;;;;5117214;28;20435;-67
2022/12/06 06:44:36;;;;;;;5.75;2.60;;;3.90;99.90;;;;;;5098959;28;20050;-67
2022/12/06 06:47:02;;;;;;;7.60;2.20;;;3.80;99.90;;;;;;5117053;28;20055;-67
2022/12/06 06:49:27;;;;;;;4.30;2.20;;;3.70;99.90;;;;;;5117111;28;20035;-67
2022/12/06 06:51:53;;;;;;;4.95;2.10;;;3.50;99.90;;;;;;5117278;28;20039;-67
2022/12/06 06:54:19;;;;;;;8.32;2.45;;;3.40;99.90;;;;;;5116959;28;20472;-66
2022/12/06 06:56:45;;;;;;;6.05;2.47;;;3.40;99.90;;;;;;5117224;28;20042;-67
2022/12/06 06:59:10;;;;;;;5.55;2.35;;;3.40;99.90;;;;;;5117159;28;20071;-66
2022/12/06 07:01:37;;;;;;;9.07;2.65;;;3.20;99.90;;;;;;5117053;28;20039;-66
2022/12/06 07:04:02;;;;;;;3.35;2.72;;;3.30;99.90;;;;;;5117045;28;20047;-67
2022/12/06 07:06:28;;;;;;;5.03;2.45;;;3.30;99.90;;;;;;5117403;28;20462;-66
2022/12/06 07:08:54;;;;;;;5.28;2.38;;;3.30;99.90;;;;;;5116682;28;20044;-66
2022/12/06 07:11:19;;;;;;;7.03;2.70;;;3.30;99.90;;;;;;5116675;28;20046;-66
2022/12/06 07:13:45;;;;;;;5.80;2.50;;;3.40;99.90;;;;;;5116772;28;20039;-66
2022/12/06 07:16:14;;;;;;;5.20;2.53;;;3.40;99.90;;;;;;5116930;28;20436;-67
2022/12/06 07:18:41;;;;;;;4.72;2.33;;;3.50;99.90;;;;;;5116712;28;20043;-67
2022/12/06 07:21:09;;;;;;;5.95;2.90;;;3.50;99.90;;;;;;5115534;28;20118;-62
2022/12/06 07:23:36;;;;;;;5.33;2.70;;;3.50;99.90;;;;;;5114845;28;20031;-63
2022/12/06 07:26:11;;;;;;;4.20;2.83;;;3.50;99.90;;;;;;5114821;28;20043;-62
2022/12/06 07:28:38;;;;;;;5.07;3.25;;;3.50;99.90;;;;;;5114678;28;20051;-63
2022/12/06 07:31:16;;;;;;;2.90;2.50;;;3.40;99.90;;;;;;5114681;28;20049;-62
2022/12/06 07:33:43;;;;;;;5.57;2.97;;;3.40;99.90;;;;;;5114768;28;20087;-63
2022/12/06 07:36:10;;;;;;;6.10;3.30;;;3.40;99.90;;;;;;5114586;28;20539;-63
2022/12/06 07:38:36;;;;;;;4.93;2.80;;;3.30;99.90;;;;;;5114690;28;20035;-63
2022/12/06 07:46:40;;;;;;;5.55;3.17;;;3.20;99.90;;;;;;5114382;28;20063;-63
2022/12/06 07:49:07;;;;;;;5.55;3.28;;;3.10;99.90;;;;;;5114593;28;20084;-63
2022/12/06 07:51:33;;;;;;;5.45;2.53;;;3.10;99.90;;;;;;5114545;28;20040;-63
2022/12/06 07:53:58;;;;;;;4.40;3.00;;;2.90;99.90;;;;;;5114550;28;20435;-63
2022/12/06 07:56:24;;;;;;;5.93;3.67;;;3.00;99.90;;;;;;5114445;28;20401;-63
2022/12/06 07:58:50;;;;;;;3.88;3.03;;;2.90;99.90;;;;;;5114304;28;20051;-63
2022/12/06 08:01:17;;;;;;;7.85;3.97;;;2.90;99.90;;;;;;5114098;28;20039;-63
2022/12/06 08:03:42;;;;;;;4.30;3.10;;;3.00;99.90;;;;;;5114515;28;20478;-63
2022/12/06 08:06:08;;;;;;;14.38;3.70;;;3.10;99.90;;;;;;5096211;28;20088;-63
2022/12/06 08:08:34;;;;;;;4.07;3.40;;;2.90;99.90;;;;;;5113655;28;20032;-63
2022/12/06 08:11:01;;;;;;;4.95;3.10;;;3.10;99.90;;;;;;5113894;28;20039;-63
2022/12/06 08:13:28;;;;;;;7.72;3.45;;;3.20;99.90;;;;;;5113604;28;20043;-63
2022/12/06 08:15:54;;;;;;;7.07;3.45;;;3.10;99.90;;;;;;5113751;28;20416;-63
2022/12/06 08:18:20;;;;;;;5.57;3.42;;;3.10;99.90;;;;;;5114057;28;20039;-63
2022/12/06 08:20:46;;;;;;;5.85;3.25;;;3.20;99.90;;;;;;5114018;28;20031;-63
2022/12/06 08:23:11;;;;;;;4.40;3.35;;;3.40;99.90;;;;;;5114120;28;20371;-64
2022/12/06 08:25:37;;;;;;;6.90;3.55;;;3.20;99.90;;;;;;5113801;28;20096;-63
2022/12/06 08:28:03;;;;;;;5.88;3.35;;;3.30;99.90;;;;;;5113631;28;20040;-63
2022/12/06 08:30:29;;;;;;;6.78;3.28;;;3.30;99.90;;;;;;5113686;28;20046;-63
2022/12/06 08:32:55;;;;;;;6.10;3.33;;;3.50;99.90;;;;;;5113627;28;20040;-63
2022/12/06 08:35:20;;;;;;;5.93;3.40;;;3.50;99.90;;;;;;5113629;28;20058;-63
2022/12/06 08:37:46;;;;;;;6.43;3.33;;;3.60;99.90;;;;;;5095253;28;20040;-63
2022/12/06 08:40:12;;;;;;;10.00;3.60;;;3.50;99.90;;;;;;5113555;28;20042;-63
2022/12/06 08:42:37;;;;;;;6.88;3.40;;;3.40;99.90;;;;;;5113347;28;20113;-63
2022/12/06 08:45:04;;;;;;;5.57;3.45;;;3.50;99.90;;;;;;5113163;28;20127;-62
2022/12/06 08:47:29;;;;;;;7.25;3.30;;;3.50;99.90;;;;;;5113053;28;20070;-63
2022/12/06 08:49:57;;;;;;;7.40;3.28;;;3.50;99.90;;;;;;5113530;28;20047;-63
2022/12/06 08:52:23;;;;;;;6.40;3.17;;;3.70;99.90;;;;;;5113046;28;20486;-63
2022/12/06 08:54:49;;;;;;;5.45;3.30;;;3.70;99.90;;;;;;5112848;28;20046;-63
2022/12/06 08:57:15;;;;;;;5.47;2.88;;;3.70;99.90;;;;;;5113156;28;20396;-63
2022/12/06 08:59:40;;;;;;;8.40;3.58;;;3.70;99.90;;;;;;5113018;28;20468;-63
2022/12/06 09:02:08;;;;;;;5.93;3.70;;;3.80;99.90;;;;;;5113058;28;20070;-63
2022/12/06 09:04:33;;;;;;;6.55;3.30;;;3.90;99.90;;;;;;5112961;28;20111;-63
2022/12/06 09:06:59;;;;;;;4.78;3.10;;;3.90;99.90;;;;;;5112946;28;20464;-63
2022/12/06 09:09:25;;;;;;;7.55;3.17;;;4.00;99.90;;;;;;5112467;28;20114;-63
2022/12/06 09:11:50;;;;;;;4.35;2.67;;;4.00;99.90;;;;;;5113024;28;20065;-63
2022/12/06 09:14:17;;;;;;;9.10;3.67;;;4.20;99.90;;;;;;5112812;28;20532;-63
2022/12/06 09:16:43;;;;;;;6.53;3.40;;;4.10;99.90;;;;;;5112942;28;20053;-63
2022/12/06 09:19:10;;;;;;;7.55;5.28;;;4.10;99.90;;;;;;5112835;28;20084;-63
2022/12/06 09:21:38;;;;;;;8.07;5.05;;;4.10;99.90;;;;;;5112972;28;20043;-63
2022/12/06 09:24:05;;;;;;;6.97;4.07;;;4.10;99.90;;;;;;5112806;28;20036;-63
2022/12/06 09:26:31;;;;;;;7.82;3.70;;;4.10;99.90;;;;;;5112792;28;20047;-63
2022/12/06 09:28:57;;;;;;;5.85;3.90;;;4.20;99.90;;;;;;5112507;28;20059;-63
2022/12/06 09:31:24;;;;;;;10.32;3.47;;;4.20;99.90;;;;;;5112763;28;20116;-63
2022/12/06 09:33:50;;;;;;;6.30;3.72;;;4.20;99.90;;;;;;5112659;28;20063;-63
2022/12/06 09:36:29;;;;;;;5.75;3.25;;;4.30;99.90;;;;;;5094168;28;20458;-64
2022/12/06 09:39:11;;;;;;;5.18;3.20;;;4.30;99.90;;;;;;5112456;28;20398;-63
2022/12/06 09:42:03;;;;;;;5.60;3.70;;;4.40;99.90;;;;;;5112470;28;20493;-63
2022/12/06 09:44:47;;;;;;;8.45;4.15;;;4.40;99.90;;;;;;5112517;28;20050;-63
2022/12/06 09:47:20;;;;;;;5.95;3.20;;;4.50;99.90;;;;;;5112374;28;20079;-63
2022/12/06 09:50:00;;;;;;;5.10;2.92;;;4.60;99.90;;;;;;5112215;28;20118;-63
2022/12/06 09:52:45;;;;;;;5.85;3.03;;;4.70;99.90;;;;;;5112612;28;20109;-63
2022/12/06 09:55:30;;;;;;;7.85;3.88;;;4.70;99.90;;;;;;5112208;28;20478;-63
2022/12/06 09:58:10;;;;;;;5.78;3.20;;;4.80;99.90;;;;;;5112298;28;20043;-63
2022/12/06 10:00:46;;;;;;;6.57;3.30;;;4.90;99.90;;;;;;5112372;28;20390;-63
2022/12/06 10:03:30;;;;;;;4.82;2.90;;;5.00;99.90;;;;;;5112324;28;20046;-63
2022/12/06 10:06:07;;;;;;;4.68;3.22;;;5.00;99.90;;;;;;5094010;28;20039;-63
2022/12/06 10:08:55;;;;;;;6.18;3.17;;;5.20;99.90;;;;;;5115653;28;20046;-63
2022/12/06 10:11:26;;;;;;;5.40;3.28;;;5.30;99.90;;;;;;5116588;28;20126;-63
2022/12/06 10:14:12;;;;;;;8.63;3.22;;;5.40;99.90;;;;;;5116215;28;20051;-63
2022/12/06 10:17:07;;;;;;;6.95;2.78;;;5.40;99.90;;;;;;5116220;28;20038;-63
2022/12/06 10:19:41;;;;;;;5.45;2.80;;;5.40;99.90;;;;;;5116392;28;20039;-62
2022/12/06 10:22:22;;;;;;;5.28;2.85;;;5.50;99.90;;;;;;5098065;28;20057;-63
2022/12/06 10:25:11;;;;;;;5.93;3.03;;;5.60;99.90;;;;;;5116169;28;20036;-63
2022/12/06 10:27:39;;;;;;;5.07;2.85;;;5.80;99.90;;;;;;5116243;28;20035;-63
2022/12/06 10:30:09;;;;;;;3.97;2.40;;;5.80;99.90;;;;;;5115774;28;20040;-63
2022/12/06 10:32:54;;;;;;;4.40;1.98;;;5.90;99.90;;;;;;5115840;28;20039;-63
2022/12/06 10:35:43;;;;;;;4.75;2.53;;;6.00;99.90;;;;;;5115704;28;20119;-62
2022/12/06 10:38:20;;;;;;;3.42;1.85;;;6.10;99.90;;;;;;5115717;28;20036;-63
2022/12/06 10:41:08;;;;;;;4.20;2.90;;;6.20;99.90;;;;;;5115794;28;20042;-63
2022/12/06 10:43:48;;;;;;;5.43;2.30;;;6.20;99.90;;;;;;5115524;28;20047;-62
2022/12/06 10:49:59;;;;;;;4.60;1.95;;;6.30;99.90;;;;;;5115760;28;20040;-63
2022/12/06 10:52:32;;;;;;;2.35;1.80;;;6.30;99.90;;;;;;5115165;28;20412;-63
2022/12/06 10:55:27;;;;;;;2.28;1.58;;;6.40;99.90;;;;;;5115522;28;20390;-63
2022/12/06 10:58:02;;;;;;;7.07;1.65;;;6.40;99.90;;;;;;5112781;28;20044;-62
2022/12/06 11:00:33;;;;;;;5.07;1.90;;;6.30;99.90;;;;;;5115174;28;20027;-63
2022/12/06 11:03:41;;;;;;;4.63;2.05;;;6.40;99.90;;;;;;5115188;28;20065;-63
2022/12/06 11:06:14;;;;;;;4.45;1.95;;;6.30;99.90;;;;;;5012447;28;20038;-63
2022/12/06 11:08:54;;;;;;;4.22;1.88;;;6.40;99.90;;;;;;5012530;28;20064;-63
2022/12/06 11:11:28;;;;;;;6.93;2.38;;;6.30;99.90;;;;;;5012468;28;20401;-63
2022/12/06 11:14:02;;;;;;;3.10;1.73;;;6.30;99.90;;;;;;5012177;28;20181;-63
2022/12/06 11:16:41;;;;;;;6.10;2.33;;;6.50;99.90;;;;;;5012425;28;20077;-62
2022/12/06 11:19:30;;;;;;;4.18;2.03;;;6.50;99.90;;;;;;5012130;28;20484;-62
2022/12/06 11:22:23;;;;;;;4.93;2.20;;;6.60;99.90;;;;;;5004637;28;20050;-62
2022/12/06 11:24:51;;;;;;;2.75;1.70;;;6.80;99.90;;;;;;4954025;29;20150;-62
2022/12/06 11:27:30;;;;;;;6.85;1.60;;;6.70;99.90;;;;;;4954088;29;20097;-62
2022/12/06 11:29:56;;;;;;;2.93;1.57;;;6.80;99.90;;;;;;4953852;29;20127;-62
2022/12/06 11:32:22;;;;;;;3.00;1.80;;;6.80;99.90;;;;;;4953755;29;20306;-62
2022/12/06 11:34:52;;;;;;;2.53;1.55;;;6.80;99.90;;;;;;4953741;29;20051;-62
2022/12/06 11:37:20;;;;;;;2.75;1.60;;;6.90;99.90;;;;;;5023362;28;20087;-62
2022/12/06 11:39:50;;;;;;;6.35;2.50;;;6.80;99.90;;;;;;5051783;28;20061;-62
2022/12/06 11:42:21;;;;;;;4.35;2.42;;;6.80;99.90;;;;;;5051746;28;20515;-62
2022/12/06 11:44:54;;;;;;;2.85;1.67;;;6.80;99.90;;;;;;5052034;28;20079;-62
2022/12/06 11:47:21;;;;;;;2.70;1.90;;;6.80;99.90;;;;;;5051609;28;20087;-62
2022/12/06 11:49:48;;;;;;;6.22;2.15;;;6.80;99.90;;;;;;5051600;28;20049;-62
2022/12/06 11:52:21;;;;;;;2.95;2.13;;;6.70;99.90;;;;;;5051449;28;20449;-62
2022/12/06 11:54:52;;;;;;;;;;;6.70;99.90;;;;;;5051496;28;20128;-63
2022/12/06 11:57:25;;;;;;;7.53;2.13;;;6.60;99.90;;;;;;5051570;28;20035;-62
2022/12/06 12:00:06;;;;;;;3.67;1.85;;;6.60;99.90;;;;;;5050899;28;20123;-62
2022/12/06 12:02:32;;;;;;;3.22;1.65;;;6.70;99.90;;;;;;5102033;28;20126;-62
2022/12/06 12:05:09;;;;;;;3.00;1.92;;;6.60;99.90;;;;;;5114045;28;20115;-63
2022/12/06 12:07:38;;;;;;;4.53;2.10;;;6.60;99.90;;;;;;5114240;28;20074;-62
2022/12/06 12:10:24;;;;;;;4.50;1.75;;;6.60;99.90;;;;;;5113856;28;20039;-62
2022/12/06 12:15:36;;;;;;;4.20;1.60;;;6.60;99.90;;;;;;5111976;28;20043;-62
2022/12/06 12:18:03;;;;;;;3.47;1.63;;;6.70;99.90;;;;;;5112825;28;20123;-62
2022/12/06 12:20:36;;;;;;;6.70;1.70;;;6.70;99.90;;;;;;5095944;28;20063;-62
2022/12/06 12:23:31;;;;;;;3.95;1.65;;;6.70;99.90;;;;;;5113586;28;20104;-62
2022/12/06 12:26:16;;;;;;;4.18;1.70;;;6.70;99.90;;;;;;5113600;28;20115;-62
2022/12/06 12:28:44;;;;;;;6.65;1.88;;;6.70;99.90;;;;;;5113656;28;20040;-62
2022/12/06 12:31:19;;;;;;;5.03;1.70;;;6.80;99.90;;;;;;5113182;28;20089;-62
2022/12/06 12:33:45;;;;;;;6.45;2.08;;;6.80;99.90;;;;;;5113226;28;20462;-63
2022/12/06 12:36:19;;;;;;;3.45;1.73;;;6.80;99.90;;;;;;5113248;28;20515;-62
2022/12/06 12:38:59;;;;;;;5.13;1.95;;;6.80;99.90;;;;;;5113525;28;20378;-62
2022/12/06 12:41:31;;;;;;;;;;;6.80;99.90;;;;;;5114019;28;20043;-62
2022/12/06 12:44:17;;;;;;;5.72;2.13;;;6.80;99.90;;;;;;5112566;28;19971;-62
2022/12/06 12:46:55;;;;;;;3.20;1.90;;;6.80;99.90;;;;;;5110950;28;20040;-62
2022/12/06 12:49:31;;;;;;;2.70;1.90;;;6.80;99.90;;;;;;5112726;28;20043;-62
2022/12/06 12:51:58;;;;;;;6.43;2.33;;;6.80;99.90;;;;;;5113195;28;20075;-62
2022/12/06 12:54:25;;;;;;;5.22;2.00;;;6.90;99.90;;;;;;5113041;28;20089;-62
2022/12/06 12:56:52;;;;;;;4.88;1.90;;;6.90;99.90;;;;;;5112973;28;20043;-62
2022/12/06 12:59:22;;;;;;;5.68;2.30;;;7.00;99.90;;;;;;5112829;28;20385;-62
2022/12/06 13:01:52;;;;;;;5.90;2.45;;;7.00;99.90;;;;;;5113041;28;20046;-62
2022/12/06 13:04:31;;;;;;;3.50;2.20;;;7.00;99.90;;;;;;5113151;28;20414;-62
2022/12/06 13:07:14;;;;;;;5.28;2.08;;;7.00;99.90;;;;;;5112935;28;20047;-61
2022/12/06 13:09:44;;;;;;;4.05;1.67;;;7.00;99.90;;;;;;5112579;28;20051;-62
2022/12/06 13:12:19;;;;;;;6.95;2.10;;;7.10;99.90;;;;;;5112880;28;20039;-63
2022/12/06 13:14:58;;;;;;;2.85;1.40;;;7.10;99.90;;;;;;5111221;28;20039;-62
2022/12/06 13:17:25;;;;;;;4.05;1.70;;;7.10;99.90;;;;;;5110728;28;20482;-61
2022/12/06 13:19:52;;;;;;;3.17;1.73;;;7.10;99.90;;;;;;5112311;28;20425;-62
2022/12/06 13:22:28;;;;;;;4.22;1.92;;;7.30;99.90;;;;;;5112537;28;20433;-61
2022/12/06 13:25:06;;;;;;;5.18;1.95;;;7.10;99.90;;;;;;5094595;28;20079;-61
2022/12/06 13:27:38;;;;;;;4.20;1.83;;;7.00;99.90;;;;;;5112955;28;20032;-61
2022/12/06 13:30:09;;;;;;;3.83;1.80;;;7.10;99.90;;;;;;5112674;28;20039;-61
2022/12/06 13:32:50;;;;;;;5.43;2.00;;;7.00;99.90;;;;;;5094601;28;20083;-61
2022/12/06 13:35:26;;;;;;;6.40;2.22;;;7.10;99.90;;;;;;5112747;28;20046;-61
2022/12/06 13:37:57;;;;;;;3.97;1.85;;;7.10;99.90;;;;;;5112615;28;20035;-62
2022/12/06 13:40:31;;;;;;;5.13;2.28;;;7.10;99.90;;;;;;5112627;28;20035;-62
2022/12/06 13:42:58;;;;;;;5.22;1.70;;;7.10;99.90;;;;;;5111240;28;20039;-61
2022/12/06 13:45:44;;;;;;;8.77;1.75;;;7.10;99.90;;;;;;5112765;28;20040;-61